To NAV CANADA Home Page Login to a new session Search on AWWS site Disclaimer Vers la page française équivalente Tips FAQ What's new on the site To the Forecasts and Observations / NOTAM section To "File a Flight Plan" website Publications and other links Update of the User's profile FIC Telephone Numbers My Weather Data Folder Route Weather Data Regional Weather Data Local Weather Data To the Forecasts and Observations / NOTAM section
Request Generated 11/16/2018 at 01:07:58 UTC . Weather information available at that time is displayed.

METAR/TAF

ISLAND LAKE/MB    

METAR CYIV 160100Z 03008G16KT 360V070 13SM -SN DRSN SCT012 BKN027 M11/M13 A3002 RMK SC4SC3 SLP188=
SPECI CYIV 160041Z 02009KT 350V050 12SM -SN SCT012 BKN027 M11/M13 A3002 RMK SC4SC3 SLP188=
METAR CYIV 160000Z 01009KT 8SM -SN BKN012 OVC030 M11/M13 A3002 RMK SC7SC1 SLP187=
SPECI CYIV 152355Z 01010KT 10SM -SN BKN012 OVC035 M11/M14 A3002 RMK SC6SC2 SLP187=
METAR CYIV 152300Z 02008G16KT 10SM -SN DRSN SCT015 OVC035 M11/M14 A3001 RMK SC3SC5 SLP183=

TAF CYIV 160038Z 1601/1613 02008KT P6SM SCT012 OVC030 TEMPO 1601/1613
5SM -SN BKN008 OVC012
RMK NXT FCST BY 160700Z=
Your time UTC time
Weather data provided by Environment Canada and NAV CANADA